createdAt,value
2017-10-14T00:01:20.778Z,30.40
2017-10-14T00:03:49.082Z,28.70
2017-10-14T00:06:16.587Z,31.13
2017-10-14T00:08:44.103Z,26.97
2017-10-14T00:11:11.611Z,29.60
2017-10-14T00:13:39.354Z,31.80
2017-10-14T00:16:07.086Z,33.20
2017-10-14T00:18:34.669Z,33.23
2017-10-14T00:21:02.189Z,31.57
2017-10-14T00:23:29.725Z,33.60
2017-10-14T00:25:58.005Z,32.03
2017-10-14T00:28:25.540Z,33.70
2017-10-14T00:30:53.055Z,33.27
2017-10-14T00:33:20.625Z,34.83
2017-10-14T00:35:48.140Z,32.47
2017-10-14T00:38:15.665Z,36.47
2017-10-14T00:40:43.208Z,34.57
2017-10-14T00:43:10.949Z,34.47
2017-10-14T00:45:38.457Z,35.70
2017-10-14T00:48:05.964Z,36.10
2017-10-14T00:50:33.482Z,33.30
2017-10-14T00:53:01.004Z,31.50
2017-10-14T00:55:28.513Z,35.10
2017-10-14T00:57:56.037Z,34.10
2017-10-14T01:00:23.553Z,31.60
2017-10-14T01:02:51.068Z,34.70
2017-10-14T01:05:18.586Z,33.30
2017-10-14T01:07:46.119Z,33.47
2017-10-14T01:10:13.633Z,32.07
2017-10-14T01:12:41.164Z,33.10
2017-10-14T01:15:08.688Z,33.60
2017-10-14T01:17:36.217Z,33.27
2017-10-14T01:20:04.521Z,31.97
2017-10-14T01:22:32.077Z,31.30
2017-10-14T01:25:00.341Z,33.50
2017-10-14T01:27:27.885Z,31.90
2017-10-14T01:29:56.170Z,30.57
2017-10-14T01:32:23.701Z,32.30
2017-10-14T01:34:51.276Z,31.07
2017-10-14T01:37:19.649Z,28.87
2017-10-14T01:39:47.255Z,29.53
2017-10-14T01:42:14.960Z,26.40
2017-10-14T01:44:42.476Z,27.00
2017-10-14T01:47:09.992Z,29.27
2017-10-14T01:49:38.273Z,27.73
2017-10-14T01:52:05.810Z,26.80
2017-10-14T01:54:33.327Z,27.90
2017-10-14T01:57:00.845Z,27.10
2017-10-14T01:59:28.396Z,27.53
2017-10-14T02:01:55.926Z,27.80
2017-10-14T02:04:23.454Z,24.97
2017-10-14T02:06:51.006Z,26.60
2017-10-14T02:09:18.516Z,26.70
2017-10-14T02:11:47.545Z,24.13
2017-10-14T02:14:15.080Z,25.57
2017-10-14T02:16:42.613Z,25.47
2017-10-14T02:19:10.116Z,25.40
2017-10-14T02:21:37.641Z,24.07
2017-10-14T02:24:05.165Z,23.60
2017-10-14T02:26:32.722Z,23.00
2017-10-14T02:29:00.301Z,23.83
2017-10-14T02:31:27.821Z,23.47
2017-10-14T02:33:55.356Z,23.23
2017-10-14T02:36:22.866Z,24.40
2017-10-14T02:38:50.381Z,21.97
2017-10-14T02:41:17.901Z,23.40
2017-10-14T02:43:45.477Z,23.40
2017-10-14T02:46:13.020Z,22.93
2017-10-14T02:48:40.612Z,23.10
2017-10-14T02:51:08.137Z,21.87
2017-10-14T02:53:35.660Z,21.80
2017-10-14T02:56:03.186Z,24.17
2017-10-14T02:58:30.879Z,21.57
2017-10-14T03:00:58.446Z,21.40
2017-10-14T03:03:25.953Z,24.23
2017-10-14T03:05:53.465Z,23.77
2017-10-14T03:08:21.027Z,22.37
2017-10-14T03:10:48.537Z,21.67
2017-10-14T03:13:16.054Z,22.40
2017-10-14T03:15:43.578Z,23.13
2017-10-14T03:18:11.108Z,22.57
2017-10-14T03:20:39.388Z,20.90
2017-10-14T03:23:07.112Z,22.80
2017-10-14T03:25:34.645Z,21.50
2017-10-14T03:28:02.144Z,22.17
2017-10-14T03:30:29.682Z,21.50
2017-10-14T03:32:57.237Z,21.97
2017-10-14T03:35:24.752Z,23.23
2017-10-14T03:37:52.586Z,23.47
2017-10-14T03:40:20.117Z,22.17
2017-10-14T03:42:47.642Z,22.07
2017-10-14T03:45:15.156Z,23.83
2017-10-14T03:47:42.708Z,23.07
2017-10-14T03:50:10.215Z,23.80
2017-10-14T03:52:37.732Z,22.40
2017-10-14T03:55:05.249Z,22.80
2017-10-14T03:57:32.771Z,23.70
2017-10-14T04:00:00.312Z,21.63
2017-10-14T04:02:27.816Z,22.20
2017-10-14T04:04:55.325Z,22.10
2017-10-14T04:07:22.865Z,22.93
2017-10-14T04:09:50.368Z,22.07
2017-10-14T04:12:18.060Z,21.87
2017-10-14T04:14:45.568Z,23.47
2017-10-14T04:17:13.088Z,23.50
2017-10-14T04:19:40.645Z,23.10
2017-10-14T04:22:08.780Z,24.40
2017-10-14T04:24:36.301Z,23.20
2017-10-14T04:27:03.814Z,22.53
2017-10-14T04:29:31.325Z,22.83
2017-10-14T04:31:58.849Z,24.13
2017-10-14T04:34:26.366Z,23.43
2017-10-14T04:36:53.892Z,23.03
2017-10-14T04:39:21.404Z,23.03
2017-10-14T04:41:48.988Z,22.47
2017-10-14T04:44:16.494Z,22.60
2017-10-14T04:46:44.037Z,22.40
2017-10-14T04:49:11.573Z,22.30
2017-10-14T04:51:39.099Z,22.33
2017-10-14T04:54:06.617Z,25.57
2017-10-14T04:56:34.183Z,22.40
2017-10-14T04:59:01.710Z,23.10
2017-10-14T05:01:29.221Z,21.50
2017-10-14T05:03:56.749Z,22.60
2017-10-14T05:06:24.256Z,22.83
2017-10-14T05:08:51.786Z,23.27
2017-10-14T05:13:53.132Z,25.13
2017-10-14T05:16:20.664Z,23.77
2017-10-14T05:18:48.186Z,24.60
2017-10-14T05:21:15.697Z,23.00
2017-10-14T05:23:43.236Z,23.80
2017-10-14T05:26:10.744Z,24.10
2017-10-14T05:28:38.261Z,22.87
2017-10-14T05:31:05.772Z,23.90
2017-10-14T05:33:33.901Z,22.30
2017-10-14T05:36:01.402Z,20.53
2017-10-14T05:38:29.211Z,23.83
2017-10-14T05:40:56.721Z,24.33
2017-10-14T05:43:24.292Z,23.47
2017-10-14T05:45:52.429Z,22.60
2017-10-14T05:48:19.948Z,24.13
2017-10-14T05:50:47.451Z,23.60
2017-10-14T05:53:15.040Z,23.60
2017-10-14T05:55:43.000Z,25.03
2017-10-14T05:58:10.520Z,24.37
2017-10-14T06:00:38.801Z,24.73
2017-10-14T06:03:06.315Z,25.03
2017-10-14T06:05:33.848Z,25.67
2017-10-14T06:08:01.369Z,26.10
2017-10-14T06:10:28.889Z,24.07
2017-10-14T06:12:56.400Z,25.73
2017-10-14T06:15:23.913Z,26.33
2017-10-14T06:17:51.550Z,24.30
2017-10-14T06:20:19.048Z,25.10
2017-10-14T06:22:46.555Z,23.97
2017-10-14T06:25:14.076Z,22.53
2017-10-14T06:27:43.198Z,24.87
2017-10-14T06:30:10.704Z,25.00
2017-10-14T06:32:38.220Z,23.10
2017-10-14T06:35:05.853Z,23.50
2017-10-14T06:37:33.364Z,20.80
2017-10-14T06:40:01.089Z,23.87
2017-10-14T06:42:28.596Z,24.80
2017-10-14T06:44:56.100Z,24.20
2017-10-14T06:47:23.629Z,22.63
2017-10-14T06:49:51.143Z,23.37
2017-10-14T06:52:18.658Z,24.00
2017-10-14T06:54:46.351Z,24.40
2017-10-14T06:57:13.850Z,23.70
2017-10-14T06:59:41.368Z,24.17
2017-10-14T07:02:08.872Z,24.10
2017-10-14T07:04:36.581Z,24.90
2017-10-14T07:07:04.095Z,23.23
2017-10-14T07:09:31.605Z,23.20
2017-10-14T07:11:59.672Z,23.03
2017-10-14T07:14:27.329Z,22.13
2017-10-14T07:16:54.851Z,23.70
2017-10-14T07:19:22.351Z,22.80
2017-10-14T07:21:49.984Z,23.97
2017-10-14T07:24:17.494Z,23.80
2017-10-14T07:26:45.000Z,23.10
2017-10-14T07:29:12.504Z,24.60
2017-10-14T07:31:40.013Z,24.43
2017-10-14T07:34:08.283Z,21.60
2017-10-14T07:36:36.182Z,23.27
2017-10-14T07:39:03.684Z,22.80
2017-10-14T07:41:32.448Z,21.70
2017-10-14T07:44:00.059Z,20.90
2017-10-14T07:46:28.327Z,21.13
2017-10-14T07:48:55.841Z,19.53
2017-10-14T07:51:23.351Z,19.50
2017-10-14T07:53:51.635Z,18.93
2017-10-14T07:56:19.310Z,17.60
2017-10-14T07:58:47.104Z,18.07
2017-10-14T08:01:14.620Z,17.80
2017-10-14T08:03:42.136Z,18.07
2017-10-14T08:06:09.659Z,18.93
2017-10-14T08:08:37.243Z,16.67
2017-10-14T08:11:04.880Z,19.23
2017-10-14T08:13:32.451Z,19.60
2017-10-14T08:15:59.969Z,17.77
2017-10-14T08:18:27.653Z,19.00
2017-10-14T08:20:55.160Z,18.77
2017-10-14T08:23:22.665Z,20.07
2017-10-14T08:25:50.179Z,20.30
2017-10-14T08:28:17.684Z,21.57
2017-10-14T08:30:45.235Z,20.03
2017-10-14T08:33:12.733Z,19.83
2017-10-14T08:35:40.486Z,19.83
2017-10-14T08:38:08.026Z,20.83
2017-10-14T08:40:35.887Z,21.20
2017-10-14T08:43:03.649Z,22.60
2017-10-14T08:45:31.411Z,22.40
2017-10-14T08:47:59.024Z,22.60
2017-10-14T08:50:26.770Z,22.33
2017-10-14T08:52:54.267Z,22.30
2017-10-14T08:55:21.796Z,22.60
2017-10-14T08:57:49.438Z,24.67
2017-10-14T09:00:17.201Z,24.70
2017-10-14T09:02:44.704Z,23.40
2017-10-14T09:05:13.152Z,24.83
2017-10-14T09:07:40.668Z,24.33
2017-10-14T09:10:08.160Z,24.77
2017-10-14T09:12:35.683Z,25.80
2017-10-14T09:15:03.181Z,26.20
2017-10-14T09:17:30.924Z,26.57
2017-10-14T09:19:58.423Z,28.63
2017-10-14T09:22:26.740Z,29.57
2017-10-14T09:24:54.244Z,30.30
2017-10-14T09:27:21.857Z,30.80
2017-10-14T09:29:49.350Z,32.53
2017-10-14T09:32:16.856Z,31.07
2017-10-14T09:34:44.361Z,27.37
2017-10-14T09:37:11.876Z,29.07
2017-10-14T09:39:39.533Z,29.37
2017-10-14T09:42:07.757Z,30.50
2017-10-14T09:44:35.280Z,28.20
2017-10-14T09:47:02.784Z,29.00
2017-10-14T09:49:30.318Z,31.47
2017-10-14T09:51:58.571Z,29.33
2017-10-14T09:54:26.065Z,28.70
2017-10-14T09:56:53.612Z,30.70
2017-10-14T09:59:21.374Z,30.67
2017-10-14T10:01:49.011Z,29.03
2017-10-14T10:04:16.502Z,28.90
2017-10-14T10:06:44.027Z,30.13
2017-10-14T10:09:11.526Z,28.50
2017-10-14T10:11:39.036Z,30.50
2017-10-14T10:14:06.730Z,31.30
2017-10-14T10:16:34.488Z,28.67
2017-10-14T10:19:01.995Z,28.83
2017-10-14T10:21:29.504Z,33.87
2017-10-14T10:23:57.019Z,33.27
2017-10-14T10:26:24.537Z,34.60
2017-10-14T10:28:53.221Z,33.07
2017-10-14T10:31:20.821Z,30.17
2017-10-14T10:33:48.326Z,31.27
2017-10-14T10:36:16.167Z,30.60
2017-10-14T10:38:43.688Z,31.13
2017-10-14T10:41:11.437Z,30.87
2017-10-14T10:43:38.955Z,29.20
2017-10-14T10:46:06.732Z,30.00
2017-10-14T10:48:34.244Z,28.30
2017-10-14T10:51:01.752Z,30.10
2017-10-14T10:53:29.271Z,30.87
2017-10-14T10:55:56.793Z,29.00
2017-10-14T10:58:24.344Z,31.27
2017-10-14T11:00:51.964Z,31.67
2017-10-14T11:03:19.453Z,33.53
2017-10-14T11:05:46.996Z,36.33
2017-10-14T11:08:14.509Z,34.80
2017-10-14T11:10:43.555Z,31.30
2017-10-14T11:13:11.172Z,37.33
2017-10-14T11:15:38.804Z,34.90
2017-10-14T11:18:07.080Z,36.97
2017-10-14T11:20:34.810Z,37.00
2017-10-14T11:23:02.321Z,35.47
2017-10-14T11:25:30.344Z,33.80
2017-10-14T11:27:57.863Z,34.87
2017-10-14T11:30:25.580Z,32.13
2017-10-14T11:32:53.096Z,27.87
2017-10-14T11:35:20.665Z,31.20
2017-10-14T11:37:48.175Z,33.07
2017-10-14T11:40:15.868Z,31.20
2017-10-14T11:42:43.360Z,31.23
2017-10-14T11:45:10.912Z,28.90
2017-10-14T11:47:38.416Z,32.63
2017-10-14T11:50:06.091Z,31.33
2017-10-14T11:52:33.600Z,31.53
2017-10-14T11:55:01.112Z,34.87
2017-10-14T11:57:28.780Z,35.13
2017-10-14T11:59:56.295Z,36.73
2017-10-14T12:02:23.808Z,32.30
2017-10-14T12:04:51.968Z,33.77
2017-10-14T12:07:19.549Z,35.43
2017-10-14T12:09:47.270Z,33.17
2017-10-14T12:12:15.666Z,36.03
2017-10-14T12:14:43.191Z,35.07
2017-10-14T12:17:10.889Z,36.93
2017-10-14T12:19:38.392Z,33.97
2017-10-14T12:22:06.151Z,33.00
2017-10-14T12:24:33.896Z,32.03
2017-10-14T12:27:01.427Z,32.50
2017-10-14T12:29:28.937Z,33.73
2017-10-14T12:31:56.547Z,36.03
2017-10-14T12:34:24.077Z,35.47
2017-10-14T12:36:51.792Z,35.13
2017-10-14T12:39:19.556Z,35.80
2017-10-14T12:41:47.330Z,35.00
2017-10-14T12:44:14.854Z,34.77
2017-10-14T12:46:42.415Z,40.10
2017-10-14T12:49:09.995Z,39.47
2017-10-14T12:51:38.208Z,39.13
2017-10-14T12:54:06.484Z,39.30
2017-10-14T12:56:33.998Z,43.87
2017-10-14T12:59:01.629Z,37.43
2017-10-14T13:01:29.436Z,41.70
2017-10-14T13:03:56.968Z,42.07
2017-10-14T13:06:24.476Z,42.07
2017-10-14T13:08:52.082Z,42.53
2017-10-14T13:11:19.584Z,41.33
2017-10-14T13:13:47.168Z,42.70
2017-10-14T13:16:15.444Z,38.07
2017-10-14T13:18:42.953Z,40.50
2017-10-14T13:21:10.469Z,37.07
2017-10-14T13:23:38.041Z,35.57
2017-10-14T13:26:05.539Z,37.57
2017-10-14T13:28:33.293Z,35.97
2017-10-14T13:31:00.796Z,36.50
2017-10-14T13:33:28.333Z,39.03
2017-10-14T13:35:55.840Z,42.40
2017-10-14T13:38:23.389Z,37.57
2017-10-14T13:40:51.063Z,38.87
2017-10-14T13:43:19.276Z,41.23
2017-10-14T13:45:47.022Z,43.00
2017-10-14T13:48:14.533Z,41.90
2017-10-14T13:50:42.048Z,38.83
2017-10-14T13:53:09.669Z,39.97
2017-10-14T13:55:37.183Z,35.47
2017-10-14T13:58:04.689Z,38.00
2017-10-14T14:00:32.204Z,36.40
2017-10-14T14:03:00.755Z,37.10
2017-10-14T14:05:28.283Z,35.37
2017-10-14T14:07:56.476Z,38.47
2017-10-14T14:10:23.992Z,41.10
2017-10-14T14:12:51.505Z,36.60
2017-10-14T14:15:19.052Z,34.93
2017-10-14T14:17:46.557Z,42.00
2017-10-14T14:20:15.100Z,37.83
2017-10-14T14:22:42.618Z,38.40
2017-10-14T14:25:10.316Z,42.60
2017-10-14T14:27:37.829Z,42.23
2017-10-14T14:30:05.333Z,41.33
2017-10-14T14:32:32.968Z,45.37
2017-10-14T14:35:00.468Z,46.43
2017-10-14T14:37:27.992Z,45.20
2017-10-14T14:39:55.560Z,44.93
2017-10-14T14:42:23.104Z,47.87
2017-10-14T14:44:50.607Z,47.03
2017-10-14T14:47:18.547Z,48.47
2017-10-14T14:49:46.108Z,49.50
2017-10-14T14:52:13.823Z,47.73
2017-10-14T14:54:41.329Z,46.67
2017-10-14T14:57:08.844Z,44.07
2017-10-14T14:59:36.356Z,44.07
2017-10-14T15:02:04.004Z,39.20
2017-10-14T15:04:31.772Z,41.03
2017-10-14T15:06:59.277Z,35.70
2017-10-14T15:09:26.993Z,37.97
2017-10-14T15:11:54.491Z,33.10
2017-10-14T15:14:22.213Z,30.97
2017-10-14T15:16:49.972Z,33.97
2017-10-14T15:19:17.480Z,30.57
2017-10-14T15:21:45.067Z,33.23
2017-10-14T15:24:12.568Z,30.33
2017-10-14T15:26:40.081Z,29.93
2017-10-14T15:29:07.600Z,30.13
2017-10-14T15:31:35.298Z,29.40
2017-10-14T15:34:02.808Z,29.50
2017-10-14T15:36:30.423Z,30.20
2017-10-14T15:38:57.999Z,28.13
2017-10-14T15:41:25.517Z,26.93
2017-10-14T15:43:53.028Z,27.40
2017-10-14T15:46:20.675Z,29.30
2017-10-14T15:48:48.315Z,33.90
2017-10-14T15:51:16.031Z,24.60
2017-10-14T15:53:43.844Z,26.77
2017-10-14T15:56:11.335Z,29.20
2017-10-14T15:58:38.861Z,26.87
2017-10-14T16:01:06.397Z,28.43
2017-10-14T16:03:34.080Z,27.17
2017-10-14T16:06:01.589Z,29.57
2017-10-14T16:08:29.092Z,28.43
2017-10-14T16:10:56.600Z,27.67
2017-10-14T16:13:24.116Z,29.87
2017-10-14T16:15:51.630Z,27.80
2017-10-14T16:18:19.691Z,28.70
2017-10-14T16:20:47.209Z,27.40
2017-10-14T16:23:14.855Z,30.03
2017-10-14T16:25:42.353Z,28.00
2017-10-14T16:28:10.711Z,27.90
2017-10-14T16:30:38.272Z,24.53
2017-10-14T16:33:05.792Z,27.90
2017-10-14T16:35:33.292Z,28.13
2017-10-14T16:38:00.809Z,27.57
2017-10-14T16:40:29.036Z,28.87
2017-10-14T16:42:56.544Z,26.63
2017-10-14T16:45:24.053Z,27.60
2017-10-14T16:47:51.671Z,25.97
2017-10-14T16:50:19.296Z,27.27
2017-10-14T16:52:47.572Z,26.70
2017-10-14T16:55:15.282Z,26.80
2017-10-14T16:57:42.783Z,24.10
2017-10-14T17:00:11.100Z,25.07
2017-10-14T17:02:38.612Z,25.73
2017-10-14T17:05:06.114Z,25.33
2017-10-14T17:07:33.625Z,25.40
2017-10-14T17:10:01.280Z,25.40
2017-10-14T17:12:28.900Z,24.47
2017-10-14T17:14:56.396Z,23.67
2017-10-14T17:17:25.297Z,23.87
2017-10-14T17:19:54.394Z,22.30
2017-10-14T17:22:23.065Z,23.33
2017-10-14T17:24:50.586Z,21.47
2017-10-14T17:27:18.371Z,21.40
2017-10-14T17:29:45.891Z,21.90
2017-10-14T17:32:13.410Z,23.10
2017-10-14T17:34:40.923Z,21.40
2017-10-14T17:37:08.432Z,21.50
2017-10-14T17:39:36.142Z,18.83
2017-10-14T17:42:03.725Z,22.30
2017-10-14T17:44:31.487Z,24.60
2017-10-14T17:46:58.998Z,19.30
2017-10-14T17:49:26.504Z,20.83
2017-10-14T17:51:54.016Z,21.87
2017-10-14T17:54:22.434Z,19.93
2017-10-14T17:56:50.000Z,21.53
2017-10-14T17:59:17.504Z,18.67
2017-10-14T18:01:45.012Z,20.10
2017-10-14T18:04:12.984Z,19.80
2017-10-14T18:06:40.504Z,20.50
2017-10-14T18:09:08.019Z,19.83
2017-10-14T18:11:35.640Z,20.87
2017-10-14T18:14:03.152Z,21.60
2017-10-14T18:16:30.660Z,19.70
2017-10-14T18:18:58.174Z,21.70
2017-10-14T18:21:26.467Z,20.20
2017-10-14T18:23:54.197Z,21.40
2017-10-14T18:26:21.704Z,26.10
2017-10-14T18:28:49.335Z,20.20
2017-10-14T18:31:16.842Z,23.57
2017-10-14T18:33:44.625Z,21.17
2017-10-14T18:36:12.384Z,21.73
2017-10-14T18:38:40.152Z,20.50
2017-10-14T18:41:07.880Z,20.13
2017-10-14T18:43:35.388Z,20.90
2017-10-14T18:46:03.705Z,22.40
2017-10-14T18:48:31.912Z,22.00
2017-10-14T18:50:59.445Z,21.93
2017-10-14T18:53:27.025Z,21.20
2017-10-14T18:55:54.532Z,26.63
2017-10-14T18:58:22.068Z,22.07
2017-10-14T19:00:49.576Z,21.70
2017-10-14T19:03:18.008Z,18.43
2017-10-14T19:05:45.517Z,20.53
2017-10-14T19:08:13.023Z,25.40
2017-10-14T19:10:41.553Z,18.03
2017-10-14T19:13:09.627Z,19.80
2017-10-14T19:15:37.150Z,16.83
2017-10-14T19:18:04.690Z,17.07
2017-10-14T19:20:32.188Z,18.50
2017-10-14T19:23:00.064Z,25.33
2017-10-14T19:25:27.625Z,17.50
2017-10-14T19:27:55.126Z,20.73
2017-10-14T19:30:22.684Z,19.57
2017-10-14T19:32:50.646Z,16.83
2017-10-14T19:35:18.392Z,18.33
2017-10-14T19:37:45.896Z,18.20
2017-10-14T19:40:13.473Z,19.30
2017-10-14T19:42:40.976Z,26.90
2017-10-14T19:45:08.516Z,21.27
2017-10-14T19:47:36.024Z,16.90
2017-10-14T19:50:04.288Z,19.03
2017-10-14T19:52:31.813Z,17.93
2017-10-14T19:54:59.308Z,18.40
2017-10-14T19:57:27.016Z,22.37
2017-10-14T19:59:54.520Z,19.57
2017-10-14T20:02:22.040Z,18.67
2017-10-14T20:04:49.726Z,18.83
2017-10-14T20:07:17.250Z,21.50
2017-10-14T20:09:44.768Z,21.27
2017-10-14T20:12:12.272Z,19.93
2017-10-14T20:14:39.805Z,19.43
2017-10-14T20:17:07.303Z,20.20
2017-10-14T20:19:34.812Z,20.87
2017-10-14T20:22:02.541Z,19.03
2017-10-14T20:24:30.103Z,19.50
2017-10-14T20:26:57.716Z,21.90
2017-10-14T20:29:25.238Z,19.00
2017-10-14T20:31:52.792Z,18.97
2017-10-14T20:34:21.056Z,21.13
2017-10-14T20:36:48.578Z,19.53
2017-10-14T20:39:16.248Z,20.30
2017-10-14T20:41:44.019Z,18.90
2017-10-14T20:44:11.525Z,19.50
2017-10-14T20:46:39.209Z,18.60
2017-10-14T20:49:06.715Z,18.80
2017-10-14T20:51:34.458Z,21.80
2017-10-14T20:54:01.984Z,18.20
2017-10-14T20:56:30.192Z,20.50
2017-10-14T20:58:57.699Z,18.20
2017-10-14T21:01:25.263Z,21.13
2017-10-14T21:03:52.966Z,18.67
2017-10-14T21:06:20.470Z,21.33
2017-10-14T21:08:48.889Z,19.87
2017-10-14T21:11:16.433Z,20.87
2017-10-14T21:13:43.990Z,21.30
2017-10-14T21:16:11.653Z,21.47
2017-10-14T21:18:39.248Z,22.70
2017-10-14T21:21:06.900Z,23.23
2017-10-14T21:23:34.890Z,23.97
2017-10-14T21:26:03.016Z,23.80
2017-10-14T21:28:30.544Z,25.30
2017-10-14T21:30:58.060Z,27.93
2017-10-14T21:33:25.572Z,28.57
2017-10-14T21:35:53.809Z,27.80
2017-10-14T21:38:21.881Z,30.93
2017-10-14T21:40:49.618Z,30.60
2017-10-14T21:43:17.230Z,32.17
2017-10-14T21:45:45.101Z,30.80
2017-10-14T21:48:13.372Z,29.67
2017-10-14T21:50:41.134Z,31.23
2017-10-14T21:53:08.695Z,33.00
2017-10-14T21:55:37.666Z,30.70
2017-10-14T21:58:05.288Z,30.70
2017-10-14T22:00:32.924Z,32.93
2017-10-14T22:03:00.704Z,31.80
2017-10-14T22:05:28.290Z,31.63
2017-10-14T22:07:56.049Z,31.50
2017-10-14T22:10:23.562Z,31.93
2017-10-14T22:12:51.061Z,32.07
2017-10-14T22:15:18.720Z,32.30
2017-10-14T22:17:46.228Z,32.40
2017-10-14T22:20:13.924Z,33.87
2017-10-14T22:22:41.420Z,33.47
2017-10-14T22:25:08.944Z,34.87
2017-10-14T22:27:36.452Z,32.50
2017-10-14T22:30:04.728Z,35.53
2017-10-14T22:32:32.452Z,33.20
2017-10-14T22:34:59.962Z,34.27
2017-10-14T22:37:27.470Z,34.37
2017-10-14T22:39:54.976Z,36.33
2017-10-14T22:42:23.243Z,35.13
2017-10-14T22:44:50.753Z,38.33
2017-10-14T22:47:18.257Z,37.67
2017-10-14T22:49:46.533Z,35.00
2017-10-14T22:52:14.044Z,36.27
2017-10-14T22:54:42.495Z,38.80
2017-10-14T22:57:10.088Z,37.77
2017-10-14T22:59:37.604Z,36.53
2017-10-14T23:02:05.109Z,38.10
2017-10-14T23:04:32.724Z,36.83
2017-10-14T23:07:00.272Z,34.70
2017-10-14T23:09:27.897Z,37.90
2017-10-14T23:11:55.439Z,37.30
2017-10-14T23:14:22.944Z,36.93
2017-10-14T23:16:50.456Z,35.30
2017-10-14T23:19:17.975Z,37.37
2017-10-14T23:21:45.558Z,36.80
2017-10-14T23:24:13.079Z,36.43
2017-10-14T23:26:40.581Z,37.43
2017-10-14T23:29:08.270Z,38.60
2017-10-14T23:31:35.760Z,35.53
2017-10-14T23:34:03.281Z,36.53
2017-10-14T23:36:30.843Z,35.13
2017-10-14T23:38:58.360Z,37.70
2017-10-14T23:41:25.862Z,37.43
2017-10-14T23:43:53.377Z,34.67
2017-10-14T23:46:20.885Z,35.70
2017-10-14T23:48:48.501Z,38.10
2017-10-14T23:51:16.000Z,35.27
2017-10-14T23:53:43.536Z,35.43
2017-10-14T23:56:11.084Z,34.77
2017-10-14T23:58:38.659Z,35.27
